sensor_id;sensor_type;location;lat;lon;timestamp;pressure;altitude;pressure_sealevel;temperature;humidity
70198;BME280;57582;-34.876;138.628;2024-01-11T00:01:34;101240;;;28.05;37.74
70198;BME280;57582;-34.876;138.628;2024-01-11T00:04:36;101246;;;28.29;36.30
70198;BME280;57582;-34.876;138.628;2024-01-11T00:07:34;101241;;;28.59;36.42
70198;BME280;57582;-34.876;138.628;2024-01-11T00:10:34;101241;;;28.83;35.93
70198;BME280;57582;-34.876;138.628;2024-01-11T00:13:34;101244;;;28.93;36.18
70198;BME280;57582;-34.876;138.628;2024-01-11T00:16:36;101230;;;29.22;35.64
70198;BME280;57582;-34.876;138.628;2024-01-11T00:19:34;101228;;;29.38;34.64
70198;BME280;57582;-34.876;138.628;2024-01-11T00:22:34;101228;;;29.62;32.44
70198;BME280;57582;-34.876;138.628;2024-01-11T00:25:34;101230;;;29.63;32.42
70198;BME280;57582;-34.876;138.628;2024-01-11T00:28:35;101229;;;29.71;32.85
70198;BME280;57582;-34.876;138.628;2024-01-11T00:31:34;101236;;;29.52;31.09
70198;BME280;57582;-34.876;138.628;2024-01-11T00:34:34;101225;;;29.50;32.01
70198;BME280;57582;-34.876;138.628;2024-01-11T00:37:34;101225;;;29.77;31.90
70198;BME280;57582;-34.876;138.628;2024-01-11T00:40:36;101223;;;29.76;31.74
70198;BME280;57582;-34.876;138.628;2024-01-11T00:43:34;101225;;;29.89;32.02
70198;BME280;57582;-34.876;138.628;2024-01-11T00:46:34;101220;;;30.06;31.32
70198;BME280;57582;-34.876;138.628;2024-01-11T00:49:34;101222;;;30.17;30.01
70198;BME280;57582;-34.876;138.628;2024-01-11T00:52:35;101217;;;30.08;30.42
70198;BME280;57582;-34.876;138.628;2024-01-11T01:01:34;101203;;;30.75;30.97
70198;BME280;57582;-34.876;138.628;2024-01-11T01:03:21;101177;;;30.78;31.15
70198;BME280;57582;-34.876;138.628;2024-01-11T01:04:58;101200;;;31.12;29.27
70198;BME280;57582;-34.876;138.628;2024-01-11T01:07:58;101198;;;31.38;29.31
70198;BME280;57582;-34.876;138.628;2024-01-11T01:11:12;101206;;;31.65;28.72
70198;BME280;57582;-34.876;138.628;2024-01-11T01:13:58;101202;;;31.72;28.68
70198;BME280;57582;-34.876;138.628;2024-01-11T01:16:58;101194;;;32.06;29.03
70198;BME280;57582;-34.876;138.628;2024-01-11T01:22:58;101201;;;32.57;27.32
70198;BME280;57582;-34.876;138.628;2024-01-11T01:26:00;101199;;;32.67;27.91
70198;BME280;57582;-34.876;138.628;2024-01-11T01:28:58;101196;;;32.54;27.00
70198;BME280;57582;-34.876;138.628;2024-01-11T01:31:58;101188;;;32.66;27.92
70198;BME280;57582;-34.876;138.628;2024-01-11T01:34:58;101187;;;32.70;27.44
70198;BME280;57582;-34.876;138.628;2024-01-11T01:38:00;101194;;;32.96;27.78
70198;BME280;57582;-34.876;138.628;2024-01-11T01:40:58;101187;;;33.08;26.66
70198;BME280;57582;-34.876;138.628;2024-01-11T01:43:58;101181;;;33.09;26.03
70198;BME280;57582;-34.876;138.628;2024-01-11T01:46:58;101192;;;33.03;26.58
70198;BME280;57582;-34.876;138.628;2024-01-11T01:49:58;101183;;;33.17;26.35
70198;BME280;57582;-34.876;138.628;2024-01-11T01:52:58;101176;;;33.06;26.72
70198;BME280;57582;-34.876;138.628;2024-01-11T01:55:58;101167;;;33.27;26.51
70198;BME280;57582;-34.876;138.628;2024-01-11T01:58:58;101166;;;33.30;26.89
70198;BME280;57582;-34.876;138.628;2024-01-11T02:02:02;101152;;;32.94;27.67
70198;BME280;57582;-34.876;138.628;2024-01-11T02:04:58;101153;;;32.58;28.60
70198;BME280;57582;-34.876;138.628;2024-01-11T02:07:58;101153;;;32.95;28.81
70198;BME280;57582;-34.876;138.628;2024-01-11T02:10:59;101149;;;32.91;28.60
70198;BME280;57582;-34.876;138.628;2024-01-11T02:13:58;101148;;;33.06;29.28
70198;BME280;57582;-34.876;138.628;2024-01-11T02:16:58;101145;;;33.21;28.11
70198;BME280;57582;-34.876;138.628;2024-01-11T02:19:58;101146;;;33.28;28.46
70198;BME280;57582;-34.876;138.628;2024-01-11T02:22:58;101150;;;33.29;28.88
70198;BME280;57582;-34.876;138.628;2024-01-11T02:25:58;101153;;;33.38;29.04
70198;BME280;57582;-34.876;138.628;2024-01-11T02:29:12;101122;;;33.30;28.40
70198;BME280;57582;-34.876;138.628;2024-01-11T02:31:44;101141;;;33.44;28.68
70198;BME280;57582;-34.876;138.628;2024-01-11T02:34:44;101142;;;33.34;28.84
70198;BME280;57582;-34.876;138.628;2024-01-11T02:37:46;101138;;;33.37;28.90
70198;BME280;57582;-34.876;138.628;2024-01-11T02:40:44;101141;;;33.24;28.78
70198;BME280;57582;-34.876;138.628;2024-01-11T02:43:47;101142;;;33.22;29.42
70198;BME280;57582;-34.876;138.628;2024-01-11T02:46:44;101138;;;33.25;29.39
70198;BME280;57582;-34.876;138.628;2024-01-11T02:49:45;101137;;;33.40;29.30
70198;BME280;57582;-34.876;138.628;2024-01-11T02:52:44;101132;;;33.47;28.72
70198;BME280;57582;-34.876;138.628;2024-01-11T02:55:44;101130;;;33.37;29.57
70198;BME280;57582;-34.876;138.628;2024-01-11T02:58:44;101129;;;33.33;29.95
70198;BME280;57582;-34.876;138.628;2024-01-11T03:01:45;101126;;;33.38;30.09
70198;BME280;57582;-34.876;138.628;2024-01-11T03:04:44;101132;;;33.44;29.29
70198;BME280;57582;-34.876;138.628;2024-01-11T03:07:44;101124;;;33.41;29.77
70198;BME280;57582;-34.876;138.628;2024-01-11T03:10:44;101124;;;33.44;29.63
70198;BME280;57582;-34.876;138.628;2024-01-11T03:13:46;101122;;;33.49;29.70
70198;BME280;57582;-34.876;138.628;2024-01-11T03:16:44;101122;;;33.44;29.88
70198;BME280;57582;-34.876;138.628;2024-01-11T03:19:44;101110;;;33.47;29.18
70198;BME280;57582;-34.876;138.628;2024-01-11T03:22:45;101113;;;33.47;29.38
70198;BME280;57582;-34.876;138.628;2024-01-11T03:25:46;101102;;;33.63;29.53
70198;BME280;57582;-34.876;138.628;2024-01-11T03:28:44;101109;;;33.79;29.87
70198;BME280;57582;-34.876;138.628;2024-01-11T03:31:44;101097;;;33.87;29.86
70198;BME280;57582;-34.876;138.628;2024-01-11T03:34:44;101094;;;33.97;29.36
70198;BME280;57582;-34.876;138.628;2024-01-11T03:37:47;101088;;;34.05;29.60
70198;BME280;57582;-34.876;138.628;2024-01-11T03:40:44;101083;;;34.09;28.64
70198;BME280;57582;-34.876;138.628;2024-01-11T03:43:45;101071;;;34.28;28.51
70198;BME280;57582;-34.876;138.628;2024-01-11T03:46:44;101067;;;34.52;28.26
70198;BME280;57582;-34.876;138.628;2024-01-11T03:49:46;101069;;;34.62;29.21
70198;BME280;57582;-34.876;138.628;2024-01-11T03:52:44;101074;;;34.70;27.82
70198;BME280;57582;-34.876;138.628;2024-01-11T03:55:44;101066;;;34.77;26.42
70198;BME280;57582;-34.876;138.628;2024-01-11T03:58:44;101067;;;34.81;27.36
70198;BME280;57582;-34.876;138.628;2024-01-11T04:01:46;101060;;;34.80;27.21
70198;BME280;57582;-34.876;138.628;2024-01-11T04:04:44;101045;;;34.78;26.95
70198;BME280;57582;-34.876;138.628;2024-01-11T04:07:44;101056;;;34.64;27.68
70198;BME280;57582;-34.876;138.628;2024-01-11T04:10:44;101051;;;34.68;27.11
70198;BME280;57582;-34.876;138.628;2024-01-11T04:13:45;101054;;;34.76;27.25
70198;BME280;57582;-34.876;138.628;2024-01-11T04:16:44;101056;;;34.88;27.05
70198;BME280;57582;-34.876;138.628;2024-01-11T04:19:44;101048;;;34.90;26.38
70198;BME280;57582;-34.876;138.628;2024-01-11T04:22:44;101045;;;34.61;25.75
70198;BME280;57582;-34.876;138.628;2024-01-11T04:25:46;101046;;;34.65;26.87
70198;BME280;57582;-34.876;138.628;2024-01-11T04:28:45;101043;;;34.68;26.13
70198;BME280;57582;-34.876;138.628;2024-01-11T04:31:44;101032;;;34.72;25.91
70198;BME280;57582;-34.876;138.628;2024-01-11T04:34:44;101037;;;34.66;25.84
70198;BME280;57582;-34.876;138.628;2024-01-11T04:37:49;101027;;;34.43;26.09
70198;BME280;57582;-34.876;138.628;2024-01-11T04:40:44;101024;;;34.63;26.32
70198;BME280;57582;-34.876;138.628;2024-01-11T04:43:44;101025;;;34.90;25.93
70198;BME280;57582;-34.876;138.628;2024-01-11T04:46:44;101026;;;35.04;25.45
70198;BME280;57582;-34.876;138.628;2024-01-11T04:49:45;101026;;;34.76;26.13
70198;BME280;57582;-34.876;138.628;2024-01-11T04:52:44;101019;;;34.91;26.18
70198;BME280;57582;-34.876;138.628;2024-01-11T04:55:44;101020;;;35.09;25.70
70198;BME280;57582;-34.876;138.628;2024-01-11T04:58:45;101015;;;35.26;25.70
70198;BME280;57582;-34.876;138.628;2024-01-11T05:01:47;101015;;;35.35;26.36
70198;BME280;57582;-34.876;138.628;2024-01-11T05:04:44;101010;;;35.06;29.43
70198;BME280;57582;-34.876;138.628;2024-01-11T05:07:44;101010;;;35.45;30.37
70198;BME280;57582;-34.876;138.628;2024-01-11T05:10:44;101000;;;35.70;26.75
70198;BME280;57582;-34.876;138.628;2024-01-11T05:13:45;100987;;;35.72;28.22
70198;BME280;57582;-34.876;138.628;2024-01-11T05:16:44;100975;;;35.72;28.43
70198;BME280;57582;-34.876;138.628;2024-01-11T05:19:44;100969;;;35.72;28.43
70198;BME280;57582;-34.876;138.628;2024-01-11T05:22:44;100973;;;35.84;28.78
70198;BME280;57582;-34.876;138.628;2024-01-11T05:25:46;100972;;;35.94;29.59
70198;BME280;57582;-34.876;138.628;2024-01-11T05:28:44;100968;;;35.88;28.92
70198;BME280;57582;-34.876;138.628;2024-01-11T05:31:44;100967;;;35.78;29.06
70198;BME280;57582;-34.876;138.628;2024-01-11T05:34:44;100960;;;35.64;29.66
70198;BME280;57582;-34.876;138.628;2024-01-11T05:37:45;100961;;;35.70;29.27
70198;BME280;57582;-34.876;138.628;2024-01-11T05:40:45;100965;;;35.87;29.59
70198;BME280;57582;-34.876;138.628;2024-01-11T05:43:44;100967;;;35.67;30.11
70198;BME280;57582;-34.876;138.628;2024-01-11T05:46:45;100957;;;35.78;29.56
70198;BME280;57582;-34.876;138.628;2024-01-11T05:49:45;100951;;;35.73;28.67
70198;BME280;57582;-34.876;138.628;2024-01-11T05:52:44;100946;;;35.68;29.91
70198;BME280;57582;-34.876;138.628;2024-01-11T05:55:45;100950;;;35.77;29.06
70198;BME280;57582;-34.876;138.628;2024-01-11T05:58:44;100955;;;35.87;28.65
70198;BME280;57582;-34.876;138.628;2024-01-11T06:01:45;100942;;;35.91;27.89
70198;BME280;57582;-34.876;138.628;2024-01-11T06:04:45;100940;;;35.76;28.82
70198;BME280;57582;-34.876;138.628;2024-01-11T06:07:45;100937;;;35.38;29.42
70198;BME280;57582;-34.876;138.628;2024-01-11T06:10:45;100939;;;35.09;28.38
70198;BME280;57582;-34.876;138.628;2024-01-11T06:13:46;100942;;;35.00;29.83
70198;BME280;57582;-34.876;138.628;2024-01-11T06:16:45;100932;;;35.08;29.36
70198;BME280;57582;-34.876;138.628;2024-01-11T06:19:45;100933;;;34.92;29.56
70198;BME280;57582;-34.876;138.628;2024-01-11T06:22:45;100933;;;35.15;29.11
70198;BME280;57582;-34.876;138.628;2024-01-11T06:25:45;100938;;;35.29;29.09
70198;BME280;57582;-34.876;138.628;2024-01-11T06:28:45;100930;;;35.29;28.58
70198;BME280;57582;-34.876;138.628;2024-01-11T06:31:45;100931;;;35.21;29.26
70198;BME280;57582;-34.876;138.628;2024-01-11T06:34:45;100931;;;35.41;28.78
70198;BME280;57582;-34.876;138.628;2024-01-11T06:37:46;100923;;;35.40;28.39
70198;BME280;57582;-34.876;138.628;2024-01-11T06:40:45;100919;;;35.46;28.63
70198;BME280;57582;-34.876;138.628;2024-01-11T06:43:45;100921;;;35.32;28.23
70198;BME280;57582;-34.876;138.628;2024-01-11T06:46:45;100924;;;35.10;28.82
70198;BME280;57582;-34.876;138.628;2024-01-11T06:49:45;100925;;;35.15;28.79
70198;BME280;57582;-34.876;138.628;2024-01-11T06:52:45;100923;;;35.13;28.64
70198;BME280;57582;-34.876;138.628;2024-01-11T06:55:45;100918;;;34.75;28.89
70198;BME280;57582;-34.876;138.628;2024-01-11T06:58:45;100919;;;34.76;29.19
70198;BME280;57582;-34.876;138.628;2024-01-11T07:01:45;100925;;;34.69;29.30
70198;BME280;57582;-34.876;138.628;2024-01-11T07:04:45;100930;;;34.72;29.20
70198;BME280;57582;-34.876;138.628;2024-01-11T07:07:45;100938;;;34.84;29.26
70198;BME280;57582;-34.876;138.628;2024-01-11T07:10:45;100930;;;34.68;28.67
70198;BME280;57582;-34.876;138.628;2024-01-11T07:13:45;100935;;;34.28;29.13
70198;BME280;57582;-34.876;138.628;2024-01-11T07:16:45;100935;;;34.04;30.23
70198;BME280;57582;-34.876;138.628;2024-01-11T07:19:45;100933;;;34.27;29.62
70198;BME280;57582;-34.876;138.628;2024-01-11T07:22:45;100941;;;34.52;29.47
70198;BME280;57582;-34.876;138.628;2024-01-11T07:25:47;100932;;;34.36;29.54
70198;BME280;57582;-34.876;138.628;2024-01-11T07:28:45;100930;;;34.37;29.29
70198;BME280;57582;-34.876;138.628;2024-01-11T07:31:45;100947;;;34.55;29.42
70198;BME280;57582;-34.876;138.628;2024-01-11T07:34:45;100943;;;34.60;28.94
70198;BME280;57582;-34.876;138.628;2024-01-11T07:37:45;100929;;;34.74;29.13
70198;BME280;57582;-34.876;138.628;2024-01-11T07:40:45;100944;;;34.74;29.15
70198;BME280;57582;-34.876;138.628;2024-01-11T07:43:45;100940;;;34.91;28.84
70198;BME280;57582;-34.876;138.628;2024-01-11T07:46:45;100941;;;34.62;28.61
70198;BME280;57582;-34.876;138.628;2024-01-11T07:49:46;100939;;;34.70;28.71
70198;BME280;57582;-34.876;138.628;2024-01-11T07:52:45;100944;;;34.61;28.62
70198;BME280;57582;-34.876;138.628;2024-01-11T07:55:45;100945;;;34.51;28.77
70198;BME280;57582;-34.876;138.628;2024-01-11T07:58:45;100946;;;33.51;29.31
70198;BME280;57582;-34.876;138.628;2024-01-11T08:01:47;100942;;;33.43;30.22
70198;BME280;57582;-34.876;138.628;2024-01-11T08:04:45;100939;;;33.60;30.26
70198;BME280;57582;-34.876;138.628;2024-01-11T08:07:45;100930;;;33.40;30.25
70198;BME280;57582;-34.876;138.628;2024-01-11T08:10:45;100929;;;33.64;30.21
70198;BME280;57582;-34.876;138.628;2024-01-11T08:13:48;100925;;;33.81;30.05
70198;BME280;57582;-34.876;138.628;2024-01-11T08:16:45;100930;;;33.94;29.36
70198;BME280;57582;-34.876;138.628;2024-01-11T08:19:45;100927;;;33.46;29.28
70198;BME280;57582;-34.876;138.628;2024-01-11T08:22:45;100925;;;32.99;30.39
70198;BME280;57582;-34.876;138.628;2024-01-11T08:25:46;100926;;;32.79;30.43
70198;BME280;57582;-34.876;138.628;2024-01-11T08:28:45;100930;;;33.07;30.31
70198;BME280;57582;-34.876;138.628;2024-01-11T08:31:45;100926;;;33.30;30.24
70198;BME280;57582;-34.876;138.628;2024-01-11T08:34:45;100923;;;33.51;29.50
70198;BME280;57582;-34.876;138.628;2024-01-11T08:37:45;100928;;;33.62;29.61
70198;BME280;57582;-34.876;138.628;2024-01-11T08:40:45;100926;;;33.70;29.24
70198;BME280;57582;-34.876;138.628;2024-01-11T08:43:45;100930;;;33.63;29.18
70198;BME280;57582;-34.876;138.628;2024-01-11T08:46:45;100928;;;33.30;29.52
70198;BME280;57582;-34.876;138.628;2024-01-11T08:49:46;100926;;;33.01;29.80
70198;BME280;57582;-34.876;138.628;2024-01-11T08:52:45;100930;;;33.12;29.61
70198;BME280;57582;-34.876;138.628;2024-01-11T08:55:45;100930;;;32.78;29.86
70198;BME280;57582;-34.876;138.628;2024-01-11T08:58:45;100929;;;32.81;29.51
70198;BME280;57582;-34.876;138.628;2024-01-11T09:01:47;100938;;;32.81;29.57
70198;BME280;57582;-34.876;138.628;2024-01-11T09:04:45;100952;;;32.24;30.46
70198;BME280;57582;-34.876;138.628;2024-01-11T09:07:45;100944;;;31.79;31.40
70198;BME280;57582;-34.876;138.628;2024-01-11T09:10:45;100946;;;31.40;32.01
70198;BME280;57582;-34.876;138.628;2024-01-11T09:13:46;100943;;;31.32;32.72
70198;BME280;57582;-34.876;138.628;2024-01-11T09:16:45;100942;;;30.88;32.76
70198;BME280;57582;-34.876;138.628;2024-01-11T09:19:45;100941;;;30.78;33.35
70198;BME280;57582;-34.876;138.628;2024-01-11T09:22:45;100949;;;30.44;34.13
70198;BME280;57582;-34.876;138.628;2024-01-11T09:25:45;100958;;;30.78;34.22
70198;BME280;57582;-34.876;138.628;2024-01-11T09:28:45;100960;;;30.71;34.35
70198;BME280;57582;-34.876;138.628;2024-01-11T09:31:45;100967;;;30.69;34.29
70198;BME280;57582;-34.876;138.628;2024-01-11T09:34:45;100967;;;30.46;34.45
70198;BME280;57582;-34.876;138.628;2024-01-11T09:37:45;100974;;;30.60;34.39
70198;BME280;57582;-34.876;138.628;2024-01-11T09:40:45;100961;;;30.56;34.76
70198;BME280;57582;-34.876;138.628;2024-01-11T09:43:45;100958;;;30.54;34.30
70198;BME280;57582;-34.876;138.628;2024-01-11T09:46:45;100958;;;30.34;34.58
70198;BME280;57582;-34.876;138.628;2024-01-11T09:49:47;100964;;;30.21;35.02
70198;BME280;57582;-34.876;138.628;2024-01-11T09:52:46;100975;;;29.87;35.63
70198;BME280;57582;-34.876;138.628;2024-01-11T09:55:45;100973;;;29.86;35.90
70198;BME280;57582;-34.876;138.628;2024-01-11T09:58:46;100973;;;29.56;36.52
70198;BME280;57582;-34.876;138.628;2024-01-11T10:01:47;100976;;;29.56;36.70
70198;BME280;57582;-34.876;138.628;2024-01-11T10:04:45;100976;;;29.51;37.11
70198;BME280;57582;-34.876;138.628;2024-01-11T10:07:45;100986;;;29.47;37.24
70198;BME280;57582;-34.876;138.628;2024-01-11T10:10:45;100986;;;29.45;37.34
70198;BME280;57582;-34.876;138.628;2024-01-11T10:13:46;100988;;;29.65;37.30
70198;BME280;57582;-34.876;138.628;2024-01-11T10:16:45;100985;;;29.49;36.88
70198;BME280;57582;-34.876;138.628;2024-01-11T10:22:45;100991;;;29.34;36.56
70198;BME280;57582;-34.876;138.628;2024-01-11T10:25:45;100990;;;29.20;36.47
70198;BME280;57582;-34.876;138.628;2024-01-11T10:28:45;100993;;;29.02;36.48
70198;BME280;57582;-34.876;138.628;2024-01-11T10:31:45;100986;;;28.89;36.63
70198;BME280;57582;-34.876;138.628;2024-01-11T10:34:45;100979;;;28.89;36.62
70198;BME280;57582;-34.876;138.628;2024-01-11T10:37:46;100977;;;28.77;36.83
70198;BME280;57582;-34.876;138.628;2024-01-11T10:40:45;100982;;;28.90;36.75
70198;BME280;57582;-34.876;138.628;2024-01-11T10:43:45;100979;;;28.88;36.58
70198;BME280;57582;-34.876;138.628;2024-01-11T10:46:45;100989;;;28.49;37.27
70198;BME280;57582;-34.876;138.628;2024-01-11T10:49:46;100980;;;28.52;37.36
70198;BME280;57582;-34.876;138.628;2024-01-11T10:52:49;100980;;;28.60;37.40
70198;BME280;57582;-34.876;138.628;2024-01-11T10:55:45;100981;;;28.06;38.93
70198;BME280;57582;-34.876;138.628;2024-01-11T10:58:45;100985;;;28.11;39.21
70198;BME280;57582;-34.876;138.628;2024-01-11T11:01:46;100992;;;28.32;39.10
70198;BME280;57582;-34.876;138.628;2024-01-11T11:04:45;100987;;;28.29;38.92
70198;BME280;57582;-34.876;138.628;2024-01-11T11:07:46;100991;;;28.16;39.51
70198;BME280;57582;-34.876;138.628;2024-01-11T11:10:45;100997;;;28.29;39.14
70198;BME280;57582;-34.876;138.628;2024-01-11T11:13:47;101006;;;28.44;38.99
70198;BME280;57582;-34.876;138.628;2024-01-11T11:16:45;101011;;;28.12;39.32
70198;BME280;57582;-34.876;138.628;2024-01-11T11:19:45;101009;;;28.01;39.51
70198;BME280;57582;-34.876;138.628;2024-01-11T11:22:56;101013;;;28.08;39.46
70198;BME280;57582;-34.876;138.628;2024-01-11T11:25:47;101021;;;28.16;39.06
70198;BME280;57582;-34.876;138.628;2024-01-11T11:28:46;101022;;;28.20;38.49
70198;BME280;57582;-34.876;138.628;2024-01-11T11:31:45;101028;;;28.02;38.36
70198;BME280;57582;-34.876;138.628;2024-01-11T11:34:45;101020;;;27.94;38.23
70198;BME280;57582;-34.876;138.628;2024-01-11T11:37:46;101032;;;27.76;38.75
70198;BME280;57582;-34.876;138.628;2024-01-11T11:40:46;101039;;;27.67;38.92
70198;BME280;57582;-34.876;138.628;2024-01-11T11:43:46;101037;;;27.19;39.24
70198;BME280;57582;-34.876;138.628;2024-01-11T11:46:45;101042;;;27.13;39.63
70198;BME280;57582;-34.876;138.628;2024-01-11T11:49:57;101038;;;27.13;38.81
70198;BME280;57582;-34.876;138.628;2024-01-11T11:52:45;101046;;;27.04;39.03
70198;BME280;57582;-34.876;138.628;2024-01-11T11:55:45;101052;;;26.56;38.76
70198;BME280;57582;-34.876;138.628;2024-01-11T11:58:45;101045;;;26.28;38.83
70198;BME280;57582;-34.876;138.628;2024-01-11T12:01:46;101049;;;25.99;39.45
70198;BME280;57582;-34.876;138.628;2024-01-11T12:04:47;101044;;;26.06;39.12
70198;BME280;57582;-34.876;138.628;2024-01-11T12:07:45;101047;;;25.48;40.35
70198;BME280;57582;-34.876;138.628;2024-01-11T12:10:45;101040;;;25.40;40.16
70198;BME280;57582;-34.876;138.628;2024-01-11T12:13:48;101040;;;25.22;39.50
70198;BME280;57582;-34.876;138.628;2024-01-11T12:16:45;101043;;;25.15;39.42
70198;BME280;57582;-34.876;138.628;2024-01-11T12:19:45;101046;;;24.87;40.34
70198;BME280;57582;-34.876;138.628;2024-01-11T12:22:45;101043;;;24.97;40.39
70198;BME280;57582;-34.876;138.628;2024-01-11T12:25:49;101039;;;25.18;39.96
70198;BME280;57582;-34.876;138.628;2024-01-11T12:28:45;101048;;;25.45;39.44
70198;BME280;57582;-34.876;138.628;2024-01-11T12:31:45;101045;;;25.66;38.93
70198;BME280;57582;-34.876;138.628;2024-01-11T12:34:45;101035;;;25.91;38.55
70198;BME280;57582;-34.876;138.628;2024-01-11T12:40:45;101041;;;26.11;38.18
70198;BME280;57582;-34.876;138.628;2024-01-11T12:43:45;101043;;;25.92;38.40
70198;BME280;57582;-34.876;138.628;2024-01-11T12:46:47;101036;;;26.08;38.07
70198;BME280;57582;-34.876;138.628;2024-01-11T12:49:49;101040;;;26.05;37.72
70198;BME280;57582;-34.876;138.628;2024-01-11T12:52:45;101040;;;26.17;37.51
70198;BME280;57582;-34.876;138.628;2024-01-11T12:55:46;101033;;;26.29;37.30
70198;BME280;57582;-34.876;138.628;2024-01-11T12:58:45;101044;;;26.48;37.01
70198;BME280;57582;-34.876;138.628;2024-01-11T13:01:46;101050;;;26.65;36.97
70198;BME280;57582;-34.876;138.628;2024-01-11T13:04:45;101049;;;26.73;36.84
70198;BME280;57582;-34.876;138.628;2024-01-11T13:07:45;101045;;;26.66;36.78
70198;BME280;57582;-34.876;138.628;2024-01-11T13:10:45;101043;;;26.64;36.95
70198;BME280;57582;-34.876;138.628;2024-01-11T13:13:49;101039;;;26.75;36.85
70198;BME280;57582;-34.876;138.628;2024-01-11T13:16:45;101051;;;26.67;36.90
70198;BME280;57582;-34.876;138.628;2024-01-11T13:19:45;101042;;;26.55;37.16
70198;BME280;57582;-34.876;138.628;2024-01-11T13:22:45;101045;;;26.68;37.05
70198;BME280;57582;-34.876;138.628;2024-01-11T13:25:47;101038;;;26.76;36.93
70198;BME280;57582;-34.876;138.628;2024-01-11T13:28:45;101037;;;26.60;37.16
70198;BME280;57582;-34.876;138.628;2024-01-11T13:31:45;101026;;;26.42;37.53
70198;BME280;57582;-34.876;138.628;2024-01-11T13:34:45;101020;;;26.31;37.92
70198;BME280;57582;-34.876;138.628;2024-01-11T13:37:47;101023;;;26.47;37.55
70198;BME280;57582;-34.876;138.628;2024-01-11T13:40:45;101018;;;26.33;37.62
70198;BME280;57582;-34.876;138.628;2024-01-11T13:43:45;101010;;;26.59;37.13
70198;BME280;57582;-34.876;138.628;2024-01-11T13:46:45;101010;;;26.39;36.71
70198;BME280;57582;-34.876;138.628;2024-01-11T13:49:47;100992;;;26.55;36.85
70198;BME280;57582;-34.876;138.628;2024-01-11T13:52:45;100988;;;26.69;36.38
70198;BME280;57582;-34.876;138.628;2024-01-11T13:55:45;100984;;;26.86;36.36
70198;BME280;57582;-34.876;138.628;2024-01-11T13:58:46;100981;;;26.96;35.95
70198;BME280;57582;-34.876;138.628;2024-01-11T14:01:49;100967;;;27.00;35.46
70198;BME280;57582;-34.876;138.628;2024-01-11T14:04:45;100966;;;27.12;34.89
70198;BME280;57582;-34.876;138.628;2024-01-11T14:07:45;100965;;;27.25;34.66
70198;BME280;57582;-34.876;138.628;2024-01-11T14:10:45;100957;;;27.37;34.32
70198;BME280;57582;-34.876;138.628;2024-01-11T14:13:46;100958;;;27.49;34.23
70198;BME280;57582;-34.876;138.628;2024-01-11T14:16:46;100952;;;27.54;34.08
70198;BME280;57582;-34.876;138.628;2024-01-11T14:19:45;100950;;;27.62;33.82
70198;BME280;57582;-34.876;138.628;2024-01-11T14:22:46;100945;;;27.64;33.98
70198;BME280;57582;-34.876;138.628;2024-01-11T14:25:48;100947;;;27.62;33.89
70198;BME280;57582;-34.876;138.628;2024-01-11T14:28:45;100940;;;27.64;33.76
70198;BME280;57582;-34.876;138.628;2024-01-11T14:31:45;100940;;;27.66;33.37
70198;BME280;57582;-34.876;138.628;2024-01-11T14:34:45;100932;;;27.57;33.70
70198;BME280;57582;-34.876;138.628;2024-01-11T14:37:48;100931;;;27.53;33.52
70198;BME280;57582;-34.876;138.628;2024-01-11T14:40:45;100928;;;27.43;33.35
70198;BME280;57582;-34.876;138.628;2024-01-11T14:43:45;100930;;;27.24;33.29
70198;BME280;57582;-34.876;138.628;2024-01-11T14:46:45;100925;;;27.18;33.32
70198;BME280;57582;-34.876;138.628;2024-01-11T14:49:48;100922;;;27.03;33.62
70198;BME280;57582;-34.876;138.628;2024-01-11T14:52:45;100921;;;26.87;33.76
70198;BME280;57582;-34.876;138.628;2024-01-11T14:55:45;100929;;;26.83;34.08
70198;BME280;57582;-34.876;138.628;2024-01-11T14:58:45;100918;;;26.88;33.83
70198;BME280;57582;-34.876;138.628;2024-01-11T15:01:46;100918;;;26.40;34.03
70198;BME280;57582;-34.876;138.628;2024-01-11T15:04:45;100924;;;25.93;34.82
70198;BME280;57582;-34.876;138.628;2024-01-11T15:07:45;100915;;;25.66;35.40
70198;BME280;57582;-34.876;138.628;2024-01-11T15:10:46;100915;;;25.48;35.73
70198;BME280;57582;-34.876;138.628;2024-01-11T15:13:46;100909;;;25.46;35.87
70198;BME280;57582;-34.876;138.628;2024-01-11T15:16:45;100912;;;25.59;35.70
70198;BME280;57582;-34.876;138.628;2024-01-11T15:19:45;100907;;;25.76;35.47
70198;BME280;57582;-34.876;138.628;2024-01-11T15:22:45;100905;;;25.89;35.32
70198;BME280;57582;-34.876;138.628;2024-01-11T15:25:48;100902;;;26.00;35.08
70198;BME280;57582;-34.876;138.628;2024-01-11T15:28:46;100909;;;25.83;35.40
70198;BME280;57582;-34.876;138.628;2024-01-11T15:31:45;100895;;;25.67;35.79
70198;BME280;57582;-34.876;138.628;2024-01-11T15:34:45;100899;;;25.56;35.95
70198;BME280;57582;-34.876;138.628;2024-01-11T15:37:47;100889;;;25.52;35.91
70198;BME280;57582;-34.876;138.628;2024-01-11T15:40:45;100884;;;25.62;35.89
70198;BME280;57582;-34.876;138.628;2024-01-11T15:43:46;100883;;;25.57;36.11
70198;BME280;57582;-34.876;138.628;2024-01-11T15:46:46;100871;;;25.65;35.98
70198;BME280;57582;-34.876;138.628;2024-01-11T15:49:47;100863;;;25.74;35.99
70198;BME280;57582;-34.876;138.628;2024-01-11T15:52:46;100860;;;25.68;35.98